Four Mile Corner, Arkansas
Current Conditions -  °F | °C
As of 1:56 AM on Saturday 20 Dec 2014 (Local Time) from KSRC Reporting Station
Overcast Overcast  
Wind Chill: 39°   Ceiling: 5500
Heat Index: 39°   Visibility: 10mi
Dew Point: 35°   Wind: 3mph
Humidity: 86%   Direction: 20°NNE
Pressure: 30.26"   Gusts: NA
Location:  34.9712°N, 91.571°W
Report Text: KSRC 200756Z AUTO 02003KT 10SM OVC055 04/02 A3026 RMK AO2 SLP255 T00390017 TSNO
Loading
Personal Weather Stations






























Interactive Weather Map New forecast layout! Learn more

10-Day Weather Forecast

Advertisements
Track Severe Weather on mobile